createdAt,value
2023-03-29T00:02:50.422Z,5.10
2023-03-29T00:05:23.143Z,5.10
2023-03-29T00:07:54.003Z,4.90
2023-03-29T00:10:24.023Z,4.80
2023-03-29T00:12:52.671Z,4.50
2023-03-29T00:15:21.761Z,4.30
2023-03-29T00:17:51.685Z,4.10
2023-03-29T00:20:20.044Z,3.80
2023-03-29T00:22:48.141Z,3.70
2023-03-29T00:25:16.413Z,3.50
2023-03-29T00:27:44.600Z,3.50
2023-03-29T00:30:14.940Z,3.40
2023-03-29T00:32:43.481Z,3.30
2023-03-29T00:35:13.271Z,3.10
2023-03-29T00:37:41.394Z,3.20
2023-03-29T00:40:12.819Z,3.10
2023-03-29T00:42:46.168Z,3.00
2023-03-29T00:45:25.204Z,3.20
2023-03-29T00:47:57.654Z,3.30
2023-03-29T00:50:34.155Z,3.30
2023-03-29T00:53:08.594Z,3.40
2023-03-29T00:55:42.875Z,3.40
2023-03-29T00:58:15.229Z,3.60
2023-03-29T01:00:53.447Z,3.50
2023-03-29T01:03:29.063Z,3.30
2023-03-29T01:06:05.969Z,3.00
2023-03-29T01:08:42.007Z,2.90
2023-03-29T01:11:18.804Z,2.90
2023-03-29T01:13:56.660Z,2.90
2023-03-29T01:16:30.364Z,2.80
2023-03-29T01:18:59.357Z,3.00
2023-03-29T01:21:36.400Z,3.20
2023-03-29T01:24:18.110Z,3.30
2023-03-29T01:27:00.916Z,3.40
2023-03-29T01:29:38.796Z,3.50
2023-03-29T01:32:15.806Z,3.60
2023-03-29T01:34:52.913Z,3.70
2023-03-29T01:37:26.556Z,3.70
2023-03-29T01:39:55.337Z,3.70
2023-03-29T01:42:41.136Z,3.70
2023-03-29T01:45:24.009Z,3.60
2023-03-29T01:48:03.369Z,3.50
2023-03-29T01:50:43.526Z,3.30
2023-03-29T01:53:19.279Z,3.30
2023-03-29T01:55:53.914Z,3.20
2023-03-29T01:58:27.820Z,3.00
2023-03-29T02:00:59.742Z,2.80
2023-03-29T02:03:33.277Z,2.70
2023-03-29T02:06:04.924Z,2.60
2023-03-29T02:08:33.471Z,2.50
2023-03-29T02:11:01.976Z,2.50
2023-03-29T02:13:30.355Z,2.40
2023-03-29T02:16:03.113Z,2.50
2023-03-29T02:18:32.076Z,2.40
2023-03-29T02:21:00.996Z,2.40
2023-03-29T02:23:34.896Z,2.50
2023-03-29T02:26:06.737Z,2.40
2023-03-29T02:28:35.610Z,2.50
2023-03-29T02:31:17.371Z,2.30
2023-03-29T02:34:04.149Z,2.20
2023-03-29T02:36:40.594Z,1.90
2023-03-29T02:39:14.049Z,1.60
2023-03-29T02:41:46.150Z,1.50
2023-03-29T02:44:19.515Z,1.60
2023-03-29T02:46:52.102Z,1.60
2023-03-29T02:49:21.112Z,1.60
2023-03-29T02:51:53.721Z,1.50
2023-03-29T02:54:26.089Z,1.40
2023-03-29T02:57:00.235Z,1.50
2023-03-29T02:59:31.130Z,1.60
2023-03-29T03:02:01.304Z,1.60
2023-03-29T03:04:29.731Z,1.40
2023-03-29T03:06:57.910Z,1.40
2023-03-29T03:09:26.068Z,1.50
2023-03-29T03:11:54.478Z,1.60
2023-03-29T03:14:23.315Z,1.60
2023-03-29T03:16:52.862Z,1.60
2023-03-29T03:19:22.748Z,1.70
2023-03-29T03:21:51.078Z,1.80
2023-03-29T03:24:19.227Z,1.90
2023-03-29T03:26:50.108Z,1.80
2023-03-29T03:29:19.118Z,1.80
2023-03-29T03:31:47.237Z,1.80
2023-03-29T03:34:15.457Z,1.90
2023-03-29T03:36:47.211Z,2.00
2023-03-29T03:39:15.666Z,2.00
2023-03-29T03:41:44.107Z,2.20
2023-03-29T03:44:13.347Z,2.10
2023-03-29T03:46:41.629Z,2.10
2023-03-29T03:49:09.981Z,2.00
2023-03-29T03:51:38.309Z,2.00
2023-03-29T03:54:08.202Z,1.90
2023-03-29T03:56:36.414Z,1.90
2023-03-29T03:59:04.777Z,2.00
2023-03-29T04:01:33.941Z,1.90
2023-03-29T04:04:04.061Z,1.80
2023-03-29T04:06:32.569Z,1.80
2023-03-29T04:09:00.657Z,1.80
2023-03-29T04:11:30.773Z,1.70
2023-03-29T04:13:59.146Z,1.80
2023-03-29T04:16:29.125Z,1.80
2023-03-29T04:18:57.575Z,2.00
2023-03-29T04:21:26.177Z,2.10
2023-03-29T04:23:54.300Z,2.10
2023-03-29T04:26:22.927Z,2.10
2023-03-29T04:28:52.531Z,1.90
2023-03-29T04:31:20.990Z,1.90
2023-03-29T04:33:49.250Z,1.80
2023-03-29T04:36:17.573Z,1.70
2023-03-29T04:38:47.717Z,1.60
2023-03-29T04:41:16.377Z,1.70
2023-03-29T04:43:46.624Z,1.70
2023-03-29T04:46:17.020Z,1.80
2023-03-29T04:48:45.264Z,1.70
2023-03-29T04:51:13.554Z,1.70
2023-03-29T04:53:41.749Z,1.70
2023-03-29T04:56:10.652Z,1.60
2023-03-29T04:58:38.899Z,1.60
2023-03-29T05:01:07.525Z,1.60
2023-03-29T05:03:37.044Z,1.60
2023-03-29T05:06:07.198Z,1.60
2023-03-29T05:08:38.912Z,1.70
2023-03-29T05:11:08.090Z,1.80
2023-03-29T05:13:37.242Z,1.80
2023-03-29T05:16:06.878Z,1.90
2023-03-29T05:18:36.631Z,1.90
2023-03-29T05:21:05.477Z,2.10
2023-03-29T05:23:34.380Z,2.20
2023-03-29T05:26:03.921Z,2.30
2023-03-29T05:28:33.883Z,2.40
2023-03-29T05:31:04.468Z,2.50
2023-03-29T05:33:33.726Z,2.70
2023-03-29T05:36:05.751Z,2.90
2023-03-29T05:38:34.013Z,3.10
2023-03-29T05:41:02.854Z,3.20
2023-03-29T05:43:31.594Z,3.40
2023-03-29T05:46:00.283Z,3.50
2023-03-29T05:48:28.847Z,3.60
2023-03-29T05:50:58.046Z,3.80
2023-03-29T05:53:28.562Z,3.90
2023-03-29T05:55:57.162Z,4.00
2023-03-29T05:58:26.542Z,4.10
2023-03-29T06:00:55.248Z,4.20
2023-03-29T06:03:27.312Z,4.30
2023-03-29T06:06:02.545Z,4.50
2023-03-29T06:08:32.855Z,4.70
2023-03-29T06:11:04.846Z,4.80
2023-03-29T06:13:34.641Z,4.90
2023-03-29T06:16:04.249Z,5.00
2023-03-29T06:18:33.257Z,5.10
2023-03-29T06:21:03.132Z,5.30
2023-03-29T06:23:33.334Z,5.40
2023-03-29T06:26:01.669Z,5.60
2023-03-29T06:28:29.862Z,5.80
2023-03-29T06:31:03.331Z,6.00
2023-03-29T06:33:34.112Z,6.30
2023-03-29T06:36:02.270Z,6.40
2023-03-29T06:38:30.904Z,6.60
2023-03-29T06:41:05.103Z,6.70
2023-03-29T06:43:34.725Z,6.60
2023-03-29T06:46:03.061Z,6.60
2023-03-29T06:48:31.696Z,6.50
2023-03-29T06:50:59.876Z,6.70
2023-03-29T06:53:28.148Z,6.80
2023-03-29T06:55:56.403Z,6.90
2023-03-29T06:58:26.172Z,7.00
2023-03-29T07:00:54.892Z,7.40
2023-03-29T07:03:23.539Z,7.70
2023-03-29T07:05:52.201Z,8.00
2023-03-29T07:08:21.445Z,8.30
2023-03-29T07:10:52.873Z,8.50
2023-03-29T07:13:21.044Z,8.70
2023-03-29T07:15:50.534Z,8.90
2023-03-29T07:18:19.171Z,9.00
2023-03-29T07:20:48.409Z,9.10
2023-03-29T07:23:18.019Z,9.20
2023-03-29T07:25:46.992Z,9.30
2023-03-29T07:28:15.107Z,9.30
2023-03-29T07:30:43.257Z,9.30
2023-03-29T07:33:13.287Z,9.20
2023-03-29T07:35:43.825Z,9.30
2023-03-29T07:38:12.141Z,9.50
2023-03-29T07:40:40.310Z,9.50
2023-03-29T07:43:10.933Z,9.60
2023-03-29T07:45:40.627Z,9.90
2023-03-29T07:48:09.918Z,10.10
2023-03-29T07:50:39.977Z,10.60
2023-03-29T07:53:09.093Z,11.10
2023-03-29T07:55:37.869Z,11.40
2023-03-29T07:58:06.203Z,11.70
2023-03-29T08:00:34.313Z,11.50
2023-03-29T08:03:03.792Z,11.30
2023-03-29T08:05:40.544Z,11.40
2023-03-29T08:08:11.505Z,11.30
2023-03-29T08:10:40.116Z,11.30
2023-03-29T08:13:10.697Z,11.40
2023-03-29T08:15:42.176Z,11.80
2023-03-29T08:18:10.380Z,12.20
2023-03-29T08:20:38.560Z,12.40
2023-03-29T08:23:07.189Z,12.30
2023-03-29T08:25:37.259Z,12.60
2023-03-29T08:28:05.848Z,13.00
2023-03-29T08:30:34.205Z,13.50
2023-03-29T08:33:02.533Z,13.90
2023-03-29T08:35:31.065Z,14.00
2023-03-29T08:37:59.363Z,14.20
2023-03-29T08:40:31.206Z,14.50
2023-03-29T08:43:22.720Z,14.60
2023-03-29T08:46:08.476Z,14.50
2023-03-29T08:48:42.675Z,14.70
2023-03-29T08:51:28.868Z,15.30
2023-03-29T08:54:05.159Z,15.90
2023-03-29T08:56:39.728Z,15.40
2023-03-29T08:59:21.642Z,14.60
2023-03-29T09:01:55.124Z,14.20
2023-03-29T09:04:28.750Z,13.90
2023-03-29T09:06:57.886Z,13.50
2023-03-29T09:09:33.520Z,13.20
2023-03-29T09:12:18.210Z,13.20
2023-03-29T09:15:11.892Z,13.40
2023-03-29T09:18:02.442Z,13.70
2023-03-29T09:20:46.217Z,13.80
2023-03-29T09:23:48.378Z,14.30
2023-03-29T09:26:28.454Z,14.60
2023-03-29T09:29:13.470Z,15.00
2023-03-29T09:31:45.549Z,15.10
2023-03-29T09:34:20.909Z,15.50
2023-03-29T09:36:53.770Z,15.70
2023-03-29T09:39:23.701Z,16.10
2023-03-29T09:41:59.701Z,16.70
2023-03-29T09:44:36.520Z,17.20
2023-03-29T09:47:14.502Z,17.60
2023-03-29T09:49:48.622Z,17.80
2023-03-29T09:52:20.942Z,17.70
2023-03-29T09:54:50.466Z,17.70
2023-03-29T09:57:21.419Z,18.40
2023-03-29T09:59:52.574Z,18.70
2023-03-29T10:02:23.111Z,19.10
2023-03-29T10:04:59.027Z,19.60
2023-03-29T10:07:44.578Z,18.70
2023-03-29T10:10:24.265Z,17.70
2023-03-29T10:12:57.930Z,18.30
2023-03-29T10:15:30.395Z,19.30
2023-03-29T10:18:03.458Z,20.00
2023-03-29T10:20:35.719Z,20.30
2023-03-29T10:23:06.654Z,20.00
2023-03-29T10:25:42.274Z,19.70
2023-03-29T10:28:17.660Z,18.70
2023-03-29T10:30:54.408Z,18.00
2023-03-29T10:33:25.722Z,18.20
2023-03-29T10:35:57.659Z,19.40
2023-03-29T10:38:30.247Z,18.80
2023-03-29T10:41:10.132Z,17.90
2023-03-29T10:43:44.014Z,17.70
2023-03-29T10:46:20.790Z,17.70
2023-03-29T10:48:52.935Z,17.90
2023-03-29T10:51:22.407Z,17.90
2023-03-29T10:53:51.092Z,17.50
2023-03-29T10:56:37.120Z,17.40
2023-03-29T10:59:24.354Z,17.90
2023-03-29T11:02:08.638Z,18.50
2023-03-29T11:04:47.098Z,18.70
2023-03-29T11:07:33.875Z,18.70
2023-03-29T11:10:31.909Z,18.50
2023-03-29T11:13:17.401Z,18.20
2023-03-29T11:16:03.350Z,18.10
2023-03-29T11:19:24.894Z,18.30
2023-03-29T11:22:09.545Z,18.40
2023-03-29T11:25:05.075Z,18.30
2023-03-29T11:27:44.950Z,18.30
2023-03-29T11:30:25.165Z,18.30
2023-03-29T11:33:10.695Z,18.30
2023-03-29T11:35:49.739Z,18.30
2023-03-29T11:38:30.599Z,18.10
2023-03-29T11:41:06.944Z,17.70
2023-03-29T11:43:42.792Z,17.90
2023-03-29T11:46:17.961Z,18.30
2023-03-29T11:48:57.295Z,18.60
2023-03-29T11:51:32.483Z,18.40
2023-03-29T11:54:09.401Z,17.80
2023-03-29T11:56:46.190Z,17.20
2023-03-29T11:59:19.713Z,16.50
2023-03-29T12:01:54.781Z,16.10
2023-03-29T12:04:31.887Z,15.70
2023-03-29T12:07:16.461Z,15.70
2023-03-29T12:09:52.365Z,15.50
2023-03-29T12:12:27.911Z,15.40
2023-03-29T12:15:08.148Z,15.40
2023-03-29T12:17:44.704Z,15.30
2023-03-29T12:20:23.420Z,15.30
2023-03-29T12:22:53.835Z,15.40
2023-03-29T12:25:31.814Z,15.60
2023-03-29T12:28:24.456Z,16.50
2023-03-29T12:31:10.656Z,16.90
2023-03-29T12:34:34.223Z,17.10
2023-03-29T12:37:25.226Z,17.20
2023-03-29T12:39:55.059Z,17.00
2023-03-29T12:42:25.777Z,16.90
2023-03-29T12:45:02.062Z,17.60
2023-03-29T12:47:43.619Z,18.00
2023-03-29T12:50:29.410Z,18.20
2023-03-29T12:53:19.813Z,18.40
2023-03-29T12:56:08.906Z,18.10
2023-03-29T12:58:55.384Z,17.90
2023-03-29T13:01:29.832Z,17.60
2023-03-29T13:04:18.911Z,17.40
2023-03-29T13:07:03.270Z,17.20
2023-03-29T13:09:37.151Z,17.20
2023-03-29T13:12:18.674Z,17.40
2023-03-29T13:14:53.612Z,17.80
2023-03-29T13:17:32.223Z,17.70
2023-03-29T13:20:32.428Z,17.30
2023-03-29T13:23:27.931Z,17.50
2023-03-29T13:26:21.499Z,17.80
2023-03-29T13:29:22.140Z,18.30
2023-03-29T13:32:07.617Z,18.70
2023-03-29T13:34:50.160Z,19.40
2023-03-29T13:37:37.393Z,19.60
2023-03-29T13:40:29.551Z,19.30
2023-03-29T13:43:02.024Z,18.70
2023-03-29T13:45:36.700Z,18.60
2023-03-29T13:48:23.903Z,18.80
2023-03-29T13:50:57.859Z,19.30
2023-03-29T13:53:34.505Z,19.50
2023-03-29T13:56:03.182Z,19.80
2023-03-29T13:58:45.405Z,19.90
2023-03-29T14:01:29.501Z,20.10
2023-03-29T14:04:00.925Z,20.40
2023-03-29T14:06:34.718Z,20.20
2023-03-29T14:09:09.395Z,20.20
2023-03-29T14:11:38.979Z,19.70
2023-03-29T14:14:09.425Z,19.30
2023-03-29T14:16:42.534Z,19.00
2023-03-29T14:19:21.147Z,18.90
2023-03-29T14:21:53.329Z,18.70
2023-03-29T14:24:27.373Z,18.50
2023-03-29T14:26:56.144Z,18.20
2023-03-29T14:29:25.582Z,18.00
2023-03-29T14:31:54.164Z,17.80
2023-03-29T14:34:24.805Z,17.80
2023-03-29T14:36:54.722Z,17.90
2023-03-29T14:39:24.543Z,18.10
2023-03-29T14:41:55.948Z,18.20
2023-03-29T14:44:30.036Z,18.30
2023-03-29T14:46:59.270Z,18.40
2023-03-29T14:49:30.264Z,18.60
2023-03-29T14:51:59.306Z,18.90
2023-03-29T14:54:31.930Z,19.10
2023-03-29T14:57:06.636Z,19.30
2023-03-29T14:59:40.539Z,19.70
2023-03-29T15:02:25.642Z,19.90
2023-03-29T15:05:03.531Z,19.90
2023-03-29T15:07:37.653Z,19.60
2023-03-29T15:10:08.265Z,19.40
2023-03-29T15:12:45.406Z,19.30
2023-03-29T15:15:15.530Z,19.30
2023-03-29T15:17:51.943Z,19.10
2023-03-29T15:20:27.074Z,18.90
2023-03-29T15:23:00.769Z,18.80
2023-03-29T15:25:34.840Z,18.70
2023-03-29T15:28:03.496Z,18.80
2023-03-29T15:30:40.348Z,18.90
2023-03-29T15:33:34.385Z,18.90
2023-03-29T15:36:08.292Z,19.10
2023-03-29T15:38:44.058Z,18.90
2023-03-29T15:41:15.786Z,18.90
2023-03-29T15:43:45.425Z,18.70
2023-03-29T15:46:15.039Z,18.50
2023-03-29T15:48:44.014Z,18.30
2023-03-29T15:51:15.048Z,18.20
2023-03-29T15:53:43.712Z,18.20
2023-03-29T15:56:23.013Z,18.20
2023-03-29T15:58:51.535Z,18.40
2023-03-29T16:01:35.850Z,18.50
2023-03-29T16:04:06.969Z,18.60
2023-03-29T16:06:38.849Z,18.60
2023-03-29T16:09:09.283Z,18.50
2023-03-29T16:11:38.355Z,18.50
2023-03-29T16:14:19.252Z,18.30
2023-03-29T16:16:48.224Z,18.30
2023-03-29T16:19:16.827Z,18.20
2023-03-29T16:21:47.698Z,18.00
2023-03-29T16:24:24.087Z,18.00
2023-03-29T16:26:56.526Z,17.90
2023-03-29T16:29:25.384Z,17.90
2023-03-29T16:31:56.744Z,17.90
2023-03-29T16:34:27.555Z,17.90
2023-03-29T16:36:57.996Z,17.80
2023-03-29T16:39:27.373Z,17.70
2023-03-29T16:41:56.291Z,17.70
2023-03-29T16:44:27.774Z,17.60
2023-03-29T16:46:58.635Z,17.50
2023-03-29T16:49:28.555Z,17.40
2023-03-29T16:51:59.822Z,17.30
2023-03-29T16:54:31.817Z,17.10
2023-03-29T16:57:02.869Z,17.10
2023-03-29T16:59:31.681Z,17.00
2023-03-29T17:02:00.500Z,16.90
2023-03-29T17:04:29.358Z,16.80
2023-03-29T17:06:59.291Z,16.70
2023-03-29T17:09:29.733Z,16.60
2023-03-29T17:11:59.598Z,16.60
2023-03-29T17:14:27.975Z,16.50
2023-03-29T17:16:56.324Z,16.50
2023-03-29T17:19:25.010Z,16.40
2023-03-29T17:21:53.534Z,16.40
2023-03-29T17:24:24.658Z,16.30
2023-03-29T17:26:53.446Z,16.30
2023-03-29T17:29:22.313Z,16.20
2023-03-29T17:31:52.303Z,16.10
2023-03-29T17:34:21.220Z,16.00
2023-03-29T17:36:53.430Z,15.90
2023-03-29T17:39:25.233Z,15.80
2023-03-29T17:41:54.522Z,15.60
2023-03-29T17:44:23.029Z,15.50
2023-03-29T17:46:51.616Z,15.40
2023-03-29T17:49:19.833Z,15.30
2023-03-29T17:51:48.762Z,15.10
2023-03-29T17:54:18.997Z,14.90
2023-03-29T17:56:50.597Z,14.70
2023-03-29T17:59:19.917Z,14.50
2023-03-29T18:01:48.489Z,14.40
2023-03-29T18:04:17.165Z,14.40
2023-03-29T18:06:46.462Z,14.50
2023-03-29T18:09:17.069Z,14.40
2023-03-29T18:11:46.653Z,14.30
2023-03-29T18:14:17.376Z,14.20
2023-03-29T18:16:45.802Z,14.10
2023-03-29T18:19:14.766Z,14.00
2023-03-29T18:21:43.664Z,13.90
2023-03-29T18:24:12.707Z,13.80
2023-03-29T18:26:42.705Z,13.80
2023-03-29T18:29:11.592Z,13.60
2023-03-29T18:31:43.026Z,13.30
2023-03-29T18:34:12.650Z,13.20
2023-03-29T18:36:41.865Z,13.10
2023-03-29T18:39:11.187Z,12.90
2023-03-29T18:41:39.414Z,12.90
2023-03-29T18:44:07.942Z,12.90
2023-03-29T18:46:36.534Z,12.80
2023-03-29T18:49:07.640Z,12.70
2023-03-29T18:51:36.362Z,12.70
2023-03-29T18:54:05.400Z,12.70
2023-03-29T18:56:33.607Z,12.70
2023-03-29T18:59:05.174Z,13.00
2023-03-29T19:01:34.725Z,13.30
2023-03-29T19:04:03.428Z,13.50
2023-03-29T19:06:34.869Z,13.60
2023-03-29T19:09:05.271Z,13.70
2023-03-29T19:11:36.101Z,13.70
2023-03-29T19:14:08.262Z,13.80
2023-03-29T19:16:37.399Z,13.90
2023-03-29T19:19:07.030Z,14.00
2023-03-29T19:21:39.099Z,14.10
2023-03-29T19:24:09.038Z,14.10
2023-03-29T19:26:41.394Z,14.10
2023-03-29T19:29:10.107Z,14.10
2023-03-29T19:31:38.647Z,14.10
2023-03-29T19:34:09.609Z,14.10
2023-03-29T19:36:39.511Z,14.00
2023-03-29T19:39:08.567Z,14.00
2023-03-29T19:41:40.001Z,13.90
2023-03-29T19:44:10.504Z,14.00
2023-03-29T19:46:38.910Z,13.90
2023-03-29T19:49:08.578Z,13.80
2023-03-29T19:51:39.291Z,13.70
2023-03-29T19:54:08.219Z,13.70
2023-03-29T19:56:37.607Z,13.70
2023-03-29T19:59:06.236Z,13.70
2023-03-29T20:01:34.786Z,13.70
2023-03-29T20:04:03.996Z,13.70
2023-03-29T20:06:32.472Z,13.70
2023-03-29T20:09:05.383Z,13.70
2023-03-29T20:11:34.447Z,13.70
2023-03-29T20:14:03.273Z,13.70
2023-03-29T20:16:34.526Z,13.60
2023-03-29T20:19:03.825Z,13.60
2023-03-29T20:21:33.820Z,13.60
2023-03-29T20:24:04.926Z,13.60
2023-03-29T20:26:33.499Z,13.60
2023-03-29T20:29:02.986Z,13.50
2023-03-29T20:31:33.175Z,13.50
2023-03-29T20:34:02.629Z,13.50
2023-03-29T20:36:33.012Z,13.50
2023-03-29T20:39:04.526Z,13.50
2023-03-29T20:41:38.334Z,13.50
2023-03-29T20:44:08.539Z,13.50
2023-03-29T20:46:39.448Z,13.40
2023-03-29T20:49:09.313Z,13.20
2023-03-29T20:51:39.760Z,13.20
2023-03-29T20:54:12.259Z,13.20
2023-03-29T20:56:42.565Z,13.30
2023-03-29T20:59:12.300Z,13.40
2023-03-29T21:01:41.103Z,13.40
2023-03-29T21:04:10.976Z,13.40
2023-03-29T21:06:39.870Z,13.30
2023-03-29T21:09:09.778Z,13.20
2023-03-29T21:11:38.415Z,13.20
2023-03-29T21:14:06.890Z,13.10
2023-03-29T21:16:35.277Z,13.20
2023-03-29T21:19:03.347Z,13.20
2023-03-29T21:21:33.656Z,13.40
2023-03-29T21:24:02.044Z,13.50
2023-03-29T21:26:32.046Z,13.70
2023-03-29T21:29:00.630Z,13.90
2023-03-29T21:31:30.135Z,13.80
2023-03-29T21:33:58.712Z,13.50
2023-03-29T21:36:27.595Z,13.40
2023-03-29T21:38:56.489Z,13.50
2023-03-29T21:41:25.168Z,13.60
2023-03-29T21:43:55.205Z,13.60
2023-03-29T21:46:24.653Z,13.60
2023-03-29T21:48:52.971Z,13.70
2023-03-29T21:51:21.122Z,14.00
2023-03-29T21:53:49.544Z,13.80
2023-03-29T21:56:17.846Z,13.40
2023-03-29T21:58:46.216Z,13.20
2023-03-29T22:01:16.299Z,12.90
2023-03-29T22:03:44.710Z,12.70
2023-03-29T22:06:16.714Z,12.60
2023-03-29T22:08:46.954Z,12.60
2023-03-29T22:11:17.342Z,12.60
2023-03-29T22:13:46.878Z,12.40
2023-03-29T22:16:18.425Z,12.40
2023-03-29T22:18:50.888Z,12.40
2023-03-29T22:21:23.759Z,12.40
2023-03-29T22:23:55.334Z,12.30
2023-03-29T22:26:27.563Z,12.30
2023-03-29T22:29:00.318Z,12.30
2023-03-29T22:31:33.041Z,12.20
2023-03-29T22:34:02.985Z,12.10
2023-03-29T22:36:33.392Z,11.90
2023-03-29T22:39:02.686Z,11.80
2023-03-29T22:41:31.746Z,11.60
2023-03-29T22:44:02.349Z,11.60
2023-03-29T22:46:33.080Z,11.40
2023-03-29T22:49:02.190Z,11.10
2023-03-29T22:51:31.470Z,10.90
2023-03-29T22:54:00.220Z,10.80
2023-03-29T22:56:29.315Z,10.70
2023-03-29T22:58:57.919Z,10.40
2023-03-29T23:01:26.584Z,10.20
2023-03-29T23:03:56.435Z,10.00
2023-03-29T23:06:40.865Z,9.90
2023-03-29T23:09:09.509Z,10.10
2023-03-29T23:11:37.952Z,10.00
2023-03-29T23:14:06.311Z,9.90
2023-03-29T23:16:35.170Z,9.80
2023-03-29T23:19:03.248Z,9.90
2023-03-29T23:21:31.375Z,10.00
2023-03-29T23:24:01.162Z,10.10
2023-03-29T23:26:29.550Z,10.10
2023-03-29T23:28:58.366Z,10.00
2023-03-29T23:31:26.505Z,9.90
2023-03-29T23:33:55.416Z,9.90
2023-03-29T23:36:23.458Z,9.90
2023-03-29T23:38:52.462Z,10.00
2023-03-29T23:41:22.740Z,10.00
2023-03-29T23:43:52.218Z,10.00
2023-03-29T23:46:20.489Z,9.90
2023-03-29T23:48:50.742Z,9.80
2023-03-29T23:51:23.068Z,9.70
2023-03-29T23:53:51.717Z,9.60
2023-03-29T23:56:21.565Z,9.50
2023-03-29T23:58:49.830Z,9.40
